Vremea acum in Cehu Silvaniei - Romania

Vrei sa afli care e starea vremii acum in Salaj - Romania? Dorim sa iti furnizam starea vremii pentru Salaj - Romania. Starea vremii Salaj - Romania pentru astazi.

Vremea acum in Cehu Silvaniei

Temperatura: 15.3 °C

Este: Senin
Se simte ca: 15.3 °C
Innorat: 8 %
Precipitatii: 0 %
Presiune atmosferica: 1019 hPa
Umiditate: 57%
Vizibilitate: 10 km
Vantul bate din NW cu 6.1 km/h

Evolutia vremii in Cehu Silvaniei pe ore

Ora: 13:00
Senin
Temperatura: 19.3°C
Sansa de precipitatii: 0%
Ora Descriere Temp Se simte Precipitatii Umiditate Vant
00:00Senin9.2°8.5°0%66%SW 6.1 KM/H
01:00Senin8.7°8.1°0%67%SW 5.8 KM/H
02:00Senin8.4°7.8°0%68%SW 5.4 KM/H
03:00Senin8.1°7.6°0%70%SW 5 KM/H
04:00Senin7.8°7.3°0%73%WSW 4.7 KM/H
05:00Senin7.4°7.1°0%75%WSW 4.3 KM/H
06:00Senin7.1°6.9°0%77%SW 4 KM/H
07:00Senin8.1°7.7°0%75%SSW 4.7 KM/H
08:00Senin11°11.5°0%68%SW 3.2 KM/H
09:00Senin13.4°14°0%61%WNW 3.6 KM/H
10:00Senin15.3°15.3°0%57%NW 6.1 KM/H
11:00Senin16.9°16.9°0%53%NNW 9 KM/H
12:00Senin18.2°18.2°0%51%NNW 10.1 KM/H
13:00Senin19.3°19.3°0%49%NNW 10.8 KM/H
14:00Senin20°20°0%47%NNW 11.2 KM/H
15:00Senin20.5°20.5°0%46%NNW 11.2 KM/H
16:00Senin20.7°20.8°0%46%NNW 11.2 KM/H
17:00Senin20.7°20.8°0%46%NW 10.8 KM/H
18:00Senin20.4°20.4°0%49%NW 10.4 KM/H
19:00Senin19.4°19.5°0%60%NNW 7.2 KM/H
20:00Senin16.4°16.4°0%65%NNW 4.3 KM/H
21:00Senin13.9°13.9°0%71%WNW 2.5 KM/H
22:00Senin12.9°13.3°0%72%SW 4 KM/H
23:00Senin12.2°12°0%74%SW 5.8 KM/H




tutorials